Time;durP1;ratioP1;P1;durP2;ratioP2;P2;SDS_P1;SDS_P2;PMS_P1;PMS_P2;Temp;Humidity;BMP_temperature;BMP_pressure;BME280_temperature;BME280_humidity;BME280_pressure;Samples;Min_cycle;Max_cycle;Signal;HPM_P1;HPM_P2
2024/02/02 00:00:26;;;;;;;21.00;6.73;;;5.80;99.90;;;;;;5075007;28;20522;-81
2024/02/02 00:02:55;;;;;;;13.50;6.20;;;5.80;99.90;;;;;;5076422;28;20482;-81
2024/02/02 00:05:22;;;;;;;23.83;7.47;;;5.80;99.90;;;;;;5074917;28;20462;-82
2024/02/02 00:07:48;;;;;;;17.30;6.90;;;5.70;99.90;;;;;;5062877;28;20494;-80
2024/02/02 00:10:16;;;;;;;13.40;6.10;;;5.80;99.90;;;;;;5064183;28;20471;-82
2024/02/02 00:12:43;;;;;;;19.03;6.20;;;5.80;99.90;;;;;;5065094;28;20455;-81
2024/02/02 00:15:10;;;;;;;12.97;5.83;;;5.80;99.90;;;;;;5071573;28;20940;-83
2024/02/02 00:17:37;;;;;;;12.57;6.40;;;5.90;99.90;;;;;;5078004;28;20456;-80
2024/02/02 00:20:08;;;;;;;20.23;6.80;;;5.90;99.90;;;;;;5071986;28;20500;-80
2024/02/02 00:22:35;;;;;;;18.87;6.93;;;5.90;99.90;;;;;;5060514;28;20460;-81
2024/02/02 00:25:02;;;;;;;21.47;5.80;;;5.80;99.90;;;;;;5076944;28;20446;-81
2024/02/02 00:27:29;;;;;;;27.80;6.90;;;5.80;99.90;;;;;;5076842;28;20535;-83
2024/02/02 00:29:56;;;;;;;24.93;7.40;;;5.80;99.90;;;;;;5074950;28;20480;-81
2024/02/02 00:32:22;;;;;;;21.93;7.63;;;5.80;99.90;;;;;;5078418;28;20482;-81
2024/02/02 00:34:49;;;;;;;19.97;5.97;;;5.80;99.90;;;;;;5078770;28;20497;-79
2024/02/02 00:37:18;;;;;;;16.00;5.53;;;5.70;99.90;;;;;;5078748;28;20485;-83
2024/02/02 00:39:45;;;;;;;25.33;6.90;;;5.70;99.90;;;;;;5079806;28;20520;-83
2024/02/02 00:42:12;;;;;;;14.03;5.90;;;5.70;99.90;;;;;;5077616;28;20487;-81
2024/02/02 00:44:39;;;;;;;15.70;6.20;;;5.70;99.90;;;;;;5080933;28;20958;-83
2024/02/02 00:47:06;;;;;;;18.97;6.17;;;5.70;99.90;;;;;;5077835;28;20455;-83
2024/02/02 00:49:33;;;;;;;26.57;6.70;;;5.70;99.90;;;;;;5076761;28;20550;-84
2024/02/02 00:52:00;;;;;;;17.97;7.10;;;5.60;99.90;;;;;;5084522;28;20465;-81
2024/02/02 00:54:28;;;;;;;15.57;5.73;;;5.60;99.90;;;;;;5085581;28;20781;-84
2024/02/02 00:56:55;;;;;;;19.27;6.60;;;5.60;99.90;;;;;;5082216;28;20455;-84
2024/02/02 00:59:22;;;;;;;17.10;6.40;;;5.60;99.90;;;;;;5085408;28;20479;-84
2024/02/02 01:01:49;;;;;;;14.97;6.60;;;5.60;99.90;;;;;;5079797;28;20478;-82
2024/02/02 01:04:16;;;;;;;20.40;7.30;;;5.60;99.90;;;;;;5070678;28;20472;-80
2024/02/02 01:06:43;;;;;;;15.00;6.33;;;5.60;99.90;;;;;;5077284;28;20482;-80
2024/02/02 01:09:11;;;;;;;20.37;7.50;;;5.50;99.90;;;;;;5078575;28;20973;-81
2024/02/02 01:11:39;;;;;;;23.03;7.40;;;5.50;99.90;;;;;;5070293;28;20533;-80
2024/02/02 01:14:06;;;;;;;23.07;7.63;;;5.50;99.90;;;;;;5080197;28;20457;-81
2024/02/02 01:16:33;;;;;;;25.90;8.47;;;5.60;99.90;;;;;;5079765;28;20455;-81
2024/02/02 01:19:00;;;;;;;27.20;8.23;;;5.60;99.90;;;;;;5073739;28;20526;-79
2024/02/02 01:21:27;;;;;;;20.33;8.33;;;5.60;99.90;;;;;;5077507;28;20464;-79
2024/02/02 01:23:54;;;;;;;17.80;7.73;;;5.60;99.90;;;;;;5080318;28;20450;-81
2024/02/02 01:26:21;;;;;;;18.53;9.27;;;5.70;99.90;;;;;;5079394;28;20501;-81
2024/02/02 01:28:49;;;;;;;25.87;8.70;;;5.70;99.90;;;;;;5081313;28;20573;-81
2024/02/02 01:31:16;;;;;;;25.30;9.40;;;5.70;99.90;;;;;;5081501;28;20447;-81
2024/02/02 01:33:43;;;;;;;21.13;7.97;;;5.70;99.90;;;;;;5083310;28;20486;-81
2024/02/02 01:36:10;;;;;;;30.10;8.60;;;5.70;99.90;;;;;;5082558;28;20451;-82
2024/02/02 01:38:38;;;;;;;24.70;8.40;;;5.70;99.90;;;;;;5070482;28;20540;-80
2024/02/02 01:41:05;;;;;;;26.83;8.47;;;5.70;99.90;;;;;;5077606;28;20483;-82
2024/02/02 01:43:32;;;;;;;20.60;8.57;;;5.60;99.90;;;;;;5077415;28;20931;-82
2024/02/02 01:46:01;;;;;;;21.87;8.93;;;5.70;99.90;;;;;;5084242;28;20459;-82
2024/02/02 01:48:27;;;;;;;15.83;7.50;;;5.70;99.90;;;;;;5084096;28;20479;-81
2024/02/02 01:50:54;;;;;;;25.23;8.60;;;5.80;99.90;;;;;;5086027;28;20447;-83
2024/02/02 01:53:21;;;;;;;21.80;9.20;;;5.80;99.90;;;;;;5076976;28;20497;-85
2024/02/02 01:55:48;;;;;;;22.03;8.90;;;5.90;99.90;;;;;;5086544;28;20474;-83
2024/02/02 01:58:15;;;;;;;24.00;8.40;;;5.90;99.90;;;;;;5085930;28;20901;-83
2024/02/02 02:00:42;;;;;;;26.93;8.43;;;5.90;99.90;;;;;;5077222;28;20487;-83
2024/02/02 02:03:11;;;;;;;20.90;8.20;;;5.90;99.90;;;;;;5079110;28;20462;-85
2024/02/02 02:05:38;;;;;;;18.97;8.30;;;5.90;99.90;;;;;;5081591;28;20486;-80
2024/02/02 02:08:06;;;;;;;19.43;7.33;;;5.90;99.90;;;;;;5082129;28;20462;-82
2024/02/02 02:10:33;;;;;;;23.63;6.50;;;5.90;99.90;;;;;;5077032;28;20933;-81
2024/02/02 02:13:00;;;;;;;19.73;7.60;;;6.00;99.90;;;;;;5068764;28;20463;-79
2024/02/02 02:15:27;;;;;;;23.17;6.83;;;6.00;99.90;;;;;;5072100;28;20550;-80
2024/02/02 02:17:54;;;;;;;12.70;7.07;;;6.10;99.90;;;;;;5075238;28;20582;-81
2024/02/02 02:20:25;;;;;;;16.07;5.60;;;6.10;99.90;;;;;;5080104;28;20521;-84
2024/02/02 02:22:54;;;;;;;18.07;6.10;;;6.20;99.90;;;;;;5073492;28;20565;-82
2024/02/02 02:25:21;;;;;;;21.50;6.53;;;6.20;99.90;;;;;;5083949;28;20466;-82
2024/02/02 02:27:48;;;;;;;17.70;6.33;;;6.20;99.90;;;;;;5075787;28;20451;-83
2024/02/02 02:30:15;;;;;;;19.47;6.13;;;6.20;99.90;;;;;;5076374;28;20472;-83
2024/02/02 02:32:42;;;;;;;24.17;7.00;;;6.30;99.90;;;;;;5080438;28;20501;-83
2024/02/02 02:35:09;;;;;;;16.40;6.77;;;6.20;99.90;;;;;;5067953;28;20993;-81
2024/02/02 02:37:36;;;;;;;20.13;6.23;;;6.30;99.90;;;;;;5068464;28;20448;-82
2024/02/02 02:40:07;;;;;;;19.97;5.37;;;6.20;99.90;;;;;;5070332;28;20952;-81
2024/02/02 02:42:34;;;;;;;16.27;5.47;;;6.30;99.90;;;;;;5083111;28;20451;-83
2024/02/02 02:45:01;;;;;;;17.00;6.57;;;6.20;99.90;;;;;;5082806;28;20484;-82
2024/02/02 02:47:28;;;;;;;15.77;5.90;;;6.30;99.90;;;;;;5084450;28;21102;-82
2024/02/02 02:49:55;;;;;;;18.87;6.50;;;6.20;99.90;;;;;;5085029;28;20475;-84
2024/02/02 02:52:22;;;;;;;14.90;6.37;;;6.20;99.90;;;;;;5084724;28;20493;-82
2024/02/02 02:54:49;;;;;;;22.07;6.00;;;6.20;99.90;;;;;;5087495;28;20460;-81
2024/02/02 02:57:17;;;;;;;19.87;6.47;;;6.20;99.90;;;;;;5086608;28;20438;-80
2024/02/02 02:59:44;;;;;;;14.23;5.93;;;6.20;99.90;;;;;;5085636;28;20839;-84
2024/02/02 03:02:11;;;;;;;11.13;5.20;;;6.10;99.90;;;;;;5093582;28;20447;-82
2024/02/02 03:04:38;;;;;;;11.80;5.57;;;6.20;99.90;;;;;;5090859;28;20515;-82
2024/02/02 03:07:05;;;;;;;16.67;6.10;;;6.20;99.90;;;;;;5082028;28;20434;-80
2024/02/02 03:09:32;;;;;;;10.97;5.53;;;6.20;99.90;;;;;;5085395;28;20495;-83
2024/02/02 03:11:59;;;;;;;15.27;5.80;;;6.20;99.90;;;;;;5087912;28;20462;-83
2024/02/02 03:14:28;;;;;;;10.40;5.10;;;6.20;99.90;;;;;;5093542;28;20466;-83
2024/02/02 03:16:55;;;;;;;15.50;5.50;;;6.20;99.90;;;;;;5093597;28;20455;-81
2024/02/02 03:19:22;;;;;;;14.30;5.27;;;6.20;99.90;;;;;;5093062;28;20467;-86
2024/02/02 03:21:48;;;;;;;14.77;6.00;;;6.10;99.90;;;;;;5093552;28;20458;-81
2024/02/02 03:24:16;;;;;;;22.77;6.57;;;6.10;99.90;;;;;;5085130;28;20455;-82
2024/02/02 03:26:43;;;;;;;14.67;7.10;;;6.10;99.90;;;;;;5079763;28;20459;-82
2024/02/02 03:29:10;;;;;;;15.53;5.90;;;6.10;99.90;;;;;;5078692;28;20491;-83
2024/02/02 03:31:39;;;;;;;12.83;5.33;;;6.10;99.90;;;;;;5078599;28;20454;-79
2024/02/02 03:34:06;;;;;;;15.47;5.40;;;6.20;99.90;;;;;;5078188;28;20459;-81
2024/02/02 03:36:33;;;;;;;18.43;5.53;;;6.10;99.90;;;;;;5074830;28;20490;-81
2024/02/02 03:39:00;;;;;;;17.03;6.93;;;6.20;99.90;;;;;;5069032;28;20498;-82
2024/02/02 03:41:27;;;;;;;16.43;4.97;;;6.10;99.90;;;;;;5070577;28;20509;-81
2024/02/02 03:43:56;;;;;;;12.17;6.93;;;6.20;99.90;;;;;;5071152;28;20882;-79
2024/02/02 03:46:23;;;;;;;13.67;5.00;;;6.20;99.90;;;;;;5077397;28;20494;-81
2024/02/02 03:48:52;;;;;;;17.77;6.40;;;6.20;99.90;;;;;;5078465;28;20475;-78
2024/02/02 03:51:18;;;;;;;11.20;5.13;;;6.10;99.90;;;;;;5078653;28;20484;-84
2024/02/02 03:53:45;;;;;;;17.17;6.10;;;6.00;99.90;;;;;;5073068;28;20871;-82
2024/02/02 03:56:12;;;;;;;23.37;6.40;;;6.00;99.90;;;;;;5077723;28;20478;-80
2024/02/02 03:58:39;;;;;;;17.40;6.37;;;5.90;99.90;;;;;;5071599;28;20511;-82
2024/02/02 04:01:06;;;;;;;13.80;6.20;;;5.90;99.90;;;;;;5080778;28;20506;-81
2024/02/02 04:03:33;;;;;;;15.50;5.20;;;5.90;99.90;;;;;;5080445;28;21040;-83
2024/02/02 04:06:01;;;;;;;12.00;6.30;;;5.90;99.90;;;;;;5075567;28;20432;-81
2024/02/02 04:08:29;;;;;;;15.90;6.03;;;5.90;99.90;;;;;;5077179;28;20478;-84
2024/02/02 04:10:56;;;;;;;15.60;6.27;;;5.80;99.90;;;;;;5082785;28;20660;-83
2024/02/02 04:13:23;;;;;;;21.27;7.13;;;5.90;99.90;;;;;;5076072;28;20466;-85
2024/02/02 04:15:50;;;;;;;24.00;6.97;;;5.80;99.90;;;;;;5084305;28;20906;-81
2024/02/02 04:18:17;;;;;;;18.53;6.97;;;5.70;99.90;;;;;;5083643;28;20475;-82
2024/02/02 04:20:44;;;;;;;13.83;6.07;;;5.70;99.90;;;;;;5075378;28;20491;-83
2024/02/02 04:23:12;;;;;;;12.20;5.73;;;5.80;99.90;;;;;;5082764;28;20470;-83
2024/02/02 04:25:39;;;;;;;17.17;5.90;;;5.70;99.90;;;;;;5074198;28;20481;-81
2024/02/02 04:28:08;;;;;;;14.00;6.03;;;5.70;99.90;;;;;;5073576;28;20455;-84
2024/02/02 04:30:35;;;;;;;15.30;6.17;;;5.60;99.90;;;;;;5074606;28;20519;-82
2024/02/02 04:33:02;;;;;;;17.17;6.80;;;5.70;99.90;;;;;;5086766;28;20554;-82
2024/02/02 04:35:32;;;;;;;11.70;6.10;;;5.70;99.90;;;;;;5085100;28;20490;-80
2024/02/02 04:37:59;;;;;;;12.10;5.80;;;5.70;99.90;;;;;;5081294;28;20479;-83
2024/02/02 04:40:28;;;;;;;18.87;6.40;;;5.70;99.90;;;;;;5084338;28;20563;-84
2024/02/02 04:42:54;;;;;;;17.20;6.47;;;5.70;99.90;;;;;;5086899;28;20450;-83
2024/02/02 04:45:21;;;;;;;21.97;7.20;;;5.70;99.90;;;;;;5086473;28;20443;-82
2024/02/02 04:47:48;;;;;;;21.77;6.17;;;5.60;99.90;;;;;;5081264;28;20463;-83
2024/02/02 04:50:15;;;;;;;16.27;6.70;;;5.60;99.90;;;;;;5078512;28;20483;-81
2024/02/02 04:52:42;;;;;;;14.50;5.87;;;5.60;99.90;;;;;;5077840;28;20490;-80
2024/02/02 04:55:10;;;;;;;16.47;6.97;;;5.60;99.90;;;;;;5085790;28;20490;-82
2024/02/02 04:57:38;;;;;;;19.87;6.70;;;5.60;99.90;;;;;;5083899;28;20459;-82
2024/02/02 05:00:07;;;;;;;17.57;7.00;;;5.60;99.90;;;;;;5086329;28;20490;-83
2024/02/02 05:02:34;;;;;;;12.60;5.07;;;5.60;99.90;;;;;;5086206;28;20460;-83
2024/02/02 05:05:01;;;;;;;20.30;5.73;;;5.60;99.90;;;;;;5084435;28;20466;-81
2024/02/02 05:07:28;;;;;;;14.57;5.47;;;5.60;99.90;;;;;;5084276;28;20974;-80
2024/02/02 05:09:55;;;;;;;9.87;5.10;;;5.60;99.90;;;;;;5082824;28;20470;-81
2024/02/02 05:12:21;;;;;;;16.03;6.63;;;5.70;99.90;;;;;;5077412;28;20493;-81
2024/02/02 05:14:50;;;;;;;14.77;5.77;;;5.60;99.90;;;;;;5075729;28;20900;-79
2024/02/02 05:17:17;;;;;;;15.60;5.10;;;5.60;99.90;;;;;;5069980;28;20818;-81
2024/02/02 05:19:44;;;;;;;25.50;7.23;;;5.60;99.90;;;;;;5076709;28;20530;-81
2024/02/02 05:22:11;;;;;;;17.73;5.13;;;5.60;99.90;;;;;;5068303;28;20523;-81
2024/02/02 05:24:38;;;;;;;12.53;4.90;;;5.60;99.90;;;;;;5074418;28;20458;-80
2024/02/02 05:27:05;;;;;;;23.73;6.83;;;5.60;99.90;;;;;;5076583;28;20965;-81
2024/02/02 05:29:32;;;;;;;17.50;6.30;;;5.60;99.90;;;;;;5068427;28;20503;-82
2024/02/02 05:32:00;;;;;;;15.07;5.83;;;5.60;99.90;;;;;;5077067;28;20479;-80
2024/02/02 05:34:27;;;;;;;25.43;5.70;;;5.60;99.90;;;;;;5078521;28;20473;-80
2024/02/02 05:36:54;;;;;;;17.77;5.40;;;5.70;99.90;;;;;;5075841;28;20451;-82
2024/02/02 05:39:21;;;;;;;15.20;4.70;;;5.70;99.90;;;;;;5080427;28;20512;-79
2024/02/02 05:41:50;;;;;;;10.83;4.17;;;5.70;99.90;;;;;;5084450;28;20659;-82
2024/02/02 05:44:17;;;;;;;21.23;5.03;;;5.80;99.90;;;;;;5086398;28;20465;-83
2024/02/02 05:46:44;;;;;;;16.30;4.93;;;5.80;99.90;;;;;;5084754;28;20432;-87
2024/02/02 05:49:12;;;;;;;12.00;5.00;;;5.90;99.90;;;;;;5078565;28;20472;-81
2024/02/02 05:51:39;;;;;;;14.23;5.97;;;6.00;99.90;;;;;;5079543;28;20451;-80
2024/02/02 05:54:06;;;;;;;16.03;5.13;;;5.90;99.90;;;;;;5082984;28;20492;-79
2024/02/02 05:56:33;;;;;;;11.97;4.03;;;6.00;99.90;;;;;;5090039;28;20501;-81
2024/02/02 05:59:00;;;;;;;15.37;3.73;;;5.90;99.90;;;;;;5082879;28;20911;-81
2024/02/02 06:01:27;;;;;;;12.33;5.77;;;5.90;99.90;;;;;;5074921;28;20490;-81
2024/02/02 06:03:54;;;;;;;13.23;4.60;;;6.00;99.90;;;;;;5087057;28;20454;-82
2024/02/02 06:06:22;;;;;;;18.60;6.50;;;6.00;99.90;;;;;;5087127;28;20561;-82
2024/02/02 06:08:49;;;;;;;16.30;4.90;;;5.90;99.90;;;;;;5085261;28;20526;-79
2024/02/02 06:11:16;;;;;;;14.20;6.07;;;6.00;99.90;;;;;;5079672;28;20477;-80
2024/02/02 06:13:43;;;;;;;13.30;5.90;;;6.00;99.90;;;;;;5074353;28;20454;-83
2024/02/02 06:16:10;;;;;;;15.73;5.00;;;6.00;99.90;;;;;;5086457;28;20450;-83
2024/02/02 06:18:37;;;;;;;14.23;4.50;;;6.00;99.90;;;;;;5075187;28;20539;-82
2024/02/02 06:21:04;;;;;;;15.03;5.20;;;6.00;99.90;;;;;;5083664;28;20497;-83
2024/02/02 06:23:32;;;;;;;15.33;4.97;;;6.10;99.90;;;;;;5076867;28;20449;-81
2024/02/02 06:25:59;;;;;;;11.10;4.13;;;6.10;99.90;;;;;;5080678;28;20481;-81
2024/02/02 06:28:26;;;;;;;16.37;4.87;;;6.10;99.90;;;;;;5070270;28;20476;-80
2024/02/02 06:30:53;;;;;;;16.33;4.30;;;6.10;99.90;;;;;;5075298;28;20497;-81
2024/02/02 06:33:20;;;;;;;18.63;5.70;;;6.00;99.90;;;;;;5071014;28;20459;-82
2024/02/02 06:35:53;;;;;;;16.40;4.83;;;6.10;99.90;;;;;;5078116;28;20450;-80
2024/02/02 06:38:19;;;;;;;11.47;3.80;;;6.20;99.90;;;;;;5080421;28;20493;-80
2024/02/02 06:40:48;;;;;;;15.87;4.40;;;6.20;99.90;;;;;;5072021;28;20484;-81
2024/02/02 06:43:15;;;;;;;11.10;4.00;;;6.20;99.90;;;;;;5072030;28;20923;-80
2024/02/02 06:45:42;;;;;;;26.23;5.90;;;6.20;99.90;;;;;;5072545;28;20451;-80
2024/02/02 06:48:13;;;;;;;13.33;4.80;;;6.30;99.90;;;;;;5072495;28;20467;-79
2024/02/02 06:50:41;;;;;;;12.50;3.90;;;6.40;99.90;;;;;;5075448;28;20464;-81
2024/02/02 06:53:09;;;;;;;14.33;4.00;;;6.40;99.90;;;;;;5075137;28;20474;-82
2024/02/02 06:55:38;;;;;;;12.90;4.43;;;6.40;99.90;;;;;;5071784;28;20475;-80
2024/02/02 06:58:17;;;;;;;25.53;4.77;;;6.40;99.90;;;;;;5081857;28;20980;-83
2024/02/02 07:00:44;;;;;;;13.33;4.73;;;6.40;99.90;;;;;;5075875;28;20431;-82
2024/02/02 07:03:11;;;;;;;11.80;6.13;;;6.30;99.90;;;;;;5081361;28;20449;-83
2024/02/02 07:05:38;;;;;;;11.70;3.97;;;6.30;99.90;;;;;;5075294;28;20445;-81
2024/02/02 07:08:06;;;;;;;8.93;3.67;;;6.30;99.90;;;;;;5081496;28;20448;-81
2024/02/02 07:10:33;;;;;;;13.80;4.77;;;6.30;99.90;;;;;;5081509;28;20488;-83
2024/02/02 07:13:01;;;;;;;11.13;4.20;;;6.30;99.90;;;;;;5085812;28;20470;-79
2024/02/02 07:15:32;;;;;;;15.07;4.37;;;6.30;99.90;;;;;;5082628;28;20463;-81
2024/02/02 07:17:59;;;;;;;12.20;3.73;;;6.20;99.90;;;;;;5079030;28;20447;-83
2024/02/02 07:21:04;;;;;;;14.00;4.60;;;6.20;99.90;;;;;;5078581;28;20451;-81
2024/02/02 07:23:35;;;;;;;16.77;7.03;;;6.20;99.90;;;;;;5063394;28;20497;-84
2024/02/02 07:26:06;;;;;;;14.10;4.20;;;6.30;99.90;;;;;;5081384;28;20444;-83
2024/02/02 07:28:37;;;;;;;13.83;3.73;;;6.30;99.90;;;;;;5080545;28;20518;-84
2024/02/02 07:31:07;;;;;;;15.40;5.10;;;6.20;99.90;;;;;;5080299;28;20435;-84
2024/02/02 07:33:41;;;;;;;9.30;3.40;;;6.20;99.90;;;;;;5081213;28;20962;-84
2024/02/02 07:36:11;;;;;;;10.77;4.20;;;6.20;99.90;;;;;;5085529;28;20453;-84
2024/02/02 07:38:54;;;;;;;15.83;4.20;;;6.10;99.90;;;;;;5083535;28;20498;-86
2024/02/02 07:41:23;;;;;;;59.43;31.20;;;6.10;99.90;;;;;;5081118;28;20471;-88
2024/02/02 07:43:50;;;;;;;16.20;4.77;;;6.00;99.90;;;;;;5081498;28;20490;-83
2024/02/02 07:46:19;;;;;;;13.73;3.50;;;6.00;99.90;;;;;;5081408;28;20428;-82
2024/02/02 07:48:53;;;;;;;8.50;3.67;;;6.00;99.90;;;;;;5077935;28;20482;-84
2024/02/02 07:51:22;;;;;;;13.83;3.23;;;6.10;99.90;;;;;;5083904;28;20443;-87
2024/02/02 07:53:50;;;;;;;20.67;4.60;;;6.10;99.90;;;;;;5084729;28;20454;-84
2024/02/02 07:56:20;;;;;;;10.27;3.67;;;6.10;99.90;;;;;;5077262;28;20452;-88
2024/02/02 07:58:47;;;;;;;13.40;5.20;;;6.10;99.90;;;;;;5079200;28;20476;-89
2024/02/02 08:01:14;;;;;;;11.33;4.10;;;6.20;99.90;;;;;;5075654;28;20993;-85
2024/02/02 08:03:46;;;;;;;11.53;4.00;;;6.20;99.90;;;;;;5079161;28;20972;-82
2024/02/02 08:06:17;;;;;;;15.00;4.27;;;6.20;99.90;;;;;;5080496;28;20463;-82
2024/02/02 08:08:46;;;;;;;11.10;3.57;;;6.30;99.90;;;;;;5079997;28;20505;-87
2024/02/02 08:11:13;;;;;;;14.40;3.10;;;6.40;99.90;;;;;;5077585;28;20447;-82
2024/02/02 08:13:40;;;;;;;11.47;3.97;;;6.40;99.90;;;;;;5072085;28;20475;-82
2024/02/02 08:16:08;;;;;;;11.53;3.60;;;6.40;99.90;;;;;;5077091;28;20490;-79
2024/02/02 08:18:38;;;;;;;11.17;3.73;;;6.40;99.90;;;;;;5075010;28;20475;-80
2024/02/02 08:21:06;;;;;;;11.60;3.50;;;6.50;99.90;;;;;;5072527;28;20464;-81
2024/02/02 08:23:34;;;;;;;9.67;4.00;;;6.60;99.90;;;;;;5071056;28;20509;-83
2024/02/02 08:26:01;;;;;;;9.80;3.33;;;6.50;99.90;;;;;;5072065;28;20455;-80
2024/02/02 08:28:28;;;;;;;15.07;3.80;;;6.60;99.90;;;;;;5065794;28;20572;-81
2024/02/02 08:30:55;;;;;;;13.13;3.70;;;6.70;99.90;;;;;;5066188;28;20455;-81
2024/02/02 08:33:22;;;;;;;8.50;3.93;;;6.70;99.90;;;;;;5072062;28;20451;-81
2024/02/02 08:35:51;;;;;;;17.07;4.00;;;6.80;99.90;;;;;;5072405;28;20468;-80
2024/02/02 08:38:19;;;;;;;14.90;4.30;;;6.80;99.90;;;;;;5079757;28;20482;-79
2024/02/02 08:40:48;;;;;;;14.47;3.97;;;6.80;99.90;;;;;;5068838;28;20447;-80
2024/02/02 08:43:17;;;;;;;10.30;3.23;;;6.80;99.90;;;;;;5069429;28;20479;-81
2024/02/02 08:46:25;;;;;;;13.40;4.30;;;6.90;99.90;;;;;;5070389;28;20467;-81
2024/02/02 08:48:55;;;;;;;10.40;4.23;;;6.90;99.90;;;;;;5055353;28;20480;-80
2024/02/02 08:51:49;;;;;;;10.17;4.30;;;7.10;99.90;;;;;;5074149;28;20496;-81
2024/02/02 08:54:45;;;;;;;8.40;3.40;;;7.20;99.90;;;;;;5067166;28;20465;-81
2024/02/02 08:57:40;;;;;;;10.63;4.77;;;7.20;99.90;;;;;;5066899;28;20452;-83
2024/02/02 09:00:25;;;;;;;12.70;4.23;;;7.30;99.90;;;;;;5070910;28;20479;-83
2024/02/02 09:03:01;;;;;;;15.57;3.67;;;7.30;99.90;;;;;;5070950;28;20496;-82
2024/02/02 09:05:35;;;;;;;12.37;4.00;;;7.40;99.90;;;;;;5074969;28;20452;-83
2024/02/02 09:08:11;;;;;;;10.13;3.73;;;7.40;99.90;;;;;;5071637;28;20458;-83
2024/02/02 09:11:12;;;;;;;12.83;4.60;;;7.40;99.90;;;;;;5073822;28;20495;-80
2024/02/02 09:13:41;;;;;;;14.50;4.50;;;7.60;99.90;;;;;;5071105;28;20474;-84
2024/02/02 09:16:11;;;;;;;16.10;5.53;;;7.60;99.90;;;;;;5069726;28;20457;-82
2024/02/02 09:18:40;;;;;;;13.20;4.37;;;7.60;99.90;;;;;;5075735;28;20476;-80
2024/02/02 09:21:08;;;;;;;14.33;4.70;;;7.70;99.90;;;;;;5078090;28;20466;-83
2024/02/02 09:23:39;;;;;;;13.40;4.57;;;7.90;99.90;;;;;;5078678;28;20472;-84
2024/02/02 09:26:11;;;;;;;11.43;4.07;;;8.00;99.90;;;;;;5078051;28;20978;-83
2024/02/02 09:28:42;;;;;;;12.50;4.20;;;8.10;99.90;;;;;;5066840;28;20472;-82
2024/02/02 09:31:17;;;;;;;9.53;4.27;;;8.10;99.90;;;;;;5062990;28;20450;-82
2024/02/02 09:33:49;;;;;;;16.73;4.23;;;8.10;99.90;;;;;;5065491;28;20461;-82
2024/02/02 09:36:16;;;;;;;14.10;4.70;;;8.20;99.90;;;;;;5078453;28;20454;-82
2024/02/02 09:38:58;;;;;;;9.77;3.50;;;8.20;99.90;;;;;;5072670;28;20470;-81
2024/02/02 09:41:57;;;;;;;11.47;4.00;;;8.20;99.90;;;;;;5077514;28;20452;-82
2024/02/02 09:44:44;;;;;;;14.90;4.40;;;8.20;99.90;;;;;;5079197;28;20462;-83
2024/02/02 09:47:27;;;;;;;11.33;4.40;;;8.20;99.90;;;;;;5070629;28;20457;-83
2024/02/02 09:50:07;;;;;;;13.63;4.47;;;8.10;99.90;;;;;;5075778;28;20485;-81
2024/02/02 09:52:47;;;;;;;12.33;4.60;;;8.20;99.90;;;;;;5074770;28;20441;-82
2024/02/02 09:55:21;;;;;;;12.33;4.13;;;8.20;99.90;;;;;;5070425;28;20455;-83
2024/02/02 09:57:58;;;;;;;12.17;4.30;;;8.20;99.90;;;;;;5081355;28;20485;-84
2024/02/02 10:00:37;;;;;;;10.83;3.83;;;8.30;99.90;;;;;;5082335;28;20466;-84
2024/02/02 10:03:17;;;;;;;11.20;3.93;;;8.40;99.90;;;;;;5088925;28;20485;-84
2024/02/02 10:05:52;;;;;;;10.50;4.63;;;8.40;99.90;;;;;;5075741;28;20452;-85
2024/02/02 10:08:35;;;;;;;11.90;4.30;;;8.40;99.90;;;;;;5077732;28;20512;-85
2024/02/02 10:11:16;;;;;;;11.87;4.10;;;8.50;99.90;;;;;;5078750;28;20462;-87
2024/02/02 10:13:58;;;;;;;16.77;4.77;;;8.60;99.90;;;;;;5078511;28;20459;-85
2024/02/02 10:16:42;;;;;;;13.97;4.60;;;8.60;99.90;;;;;;5079025;28;20426;-89
2024/02/02 10:19:49;;;;;;;11.80;4.23;;;8.80;99.90;;;;;;5076322;28;20521;-86
2024/02/02 10:22:35;;;;;;;15.67;5.00;;;8.80;99.90;;;;;;5074073;28;20484;-84
2024/02/02 10:25:20;;;;;;;9.80;4.80;;;8.90;99.90;;;;;;5077850;28;20560;-86
2024/02/02 10:28:06;;;;;;;13.93;4.80;;;8.90;99.90;;;;;;5086448;28;20466;-84
2024/02/02 10:30:41;;;;;;;30.67;14.23;;;8.90;99.90;;;;;;5082418;28;20445;-84
2024/02/02 10:33:25;;;;;;;9.90;4.13;;;9.10;99.90;;;;;;5088736;28;20434;-85
2024/02/02 10:36:06;;;;;;;16.50;5.87;;;9.20;99.90;;;;;;5082671;28;20489;-83
2024/02/02 10:38:50;;;;;;;14.10;4.17;;;9.10;99.90;;;;;;5085157;28;20478;-86
2024/02/02 10:41:24;;;;;;;14.70;4.73;;;9.10;99.90;;;;;;5079650;28;20485;-84
2024/02/02 10:44:06;;;;;;;10.07;3.73;;;8.80;99.90;;;;;;5082941;28;20493;-85
2024/02/02 10:46:39;;;;;;;9.30;3.53;;;9.10;99.90;;;;;;5083594;28;20454;-85
2024/02/02 10:49:36;;;;;;;9.33;4.30;;;9.10;99.90;;;;;;5084072;28;20471;-85
2024/02/02 10:52:13;;;;;;;11.07;3.80;;;9.20;99.90;;;;;;5085463;28;20506;-85
2024/02/02 10:55:01;;;;;;;11.43;4.50;;;9.40;99.90;;;;;;5093738;28;20472;-89
2024/02/02 10:57:32;;;;;;;15.97;4.50;;;9.80;99.90;;;;;;5089158;28;20420;-89
2024/02/02 11:00:11;;;;;;;13.27;5.10;;;10.00;99.90;;;;;;5090228;28;20479;-82
2024/02/02 11:02:56;;;;;;;13.10;3.83;;;10.40;99.90;;;;;;5092605;28;20511;-83
2024/02/02 11:05:33;;;;;;;12.67;4.47;;;10.90;99.90;;;;;;5088021;28;20455;-87
2024/02/02 11:08:03;;;;;;;19.43;3.87;;;10.90;99.90;;;;;;5082171;28;20436;-82
2024/02/02 11:10:43;;;;;;;11.50;4.47;;;10.80;99.90;;;;;;5070532;28;20453;-81
2024/02/02 11:13:17;;;;;;;10.30;4.20;;;10.80;99.90;;;;;;5081873;28;20527;-83
2024/02/02 11:16:01;;;;;;;10.03;3.73;;;10.60;99.90;;;;;;5083421;28;20908;-86
2024/02/02 11:18:51;;;;;;;12.53;3.70;;;10.40;99.90;;;;;;5073772;28;20533;-84
2024/02/02 11:21:38;;;;;;;8.77;4.43;;;10.50;99.90;;;;;;5073994;28;20478;-84
2024/02/02 11:24:16;;;;;;;16.47;5.10;;;10.40;99.90;;;;;;5071449;28;20982;-83
2024/02/02 11:26:54;;;;;;;10.03;4.73;;;10.50;99.90;;;;;;5068339;28;20440;-81
2024/02/02 11:29:31;;;;;;;8.70;4.13;;;10.60;99.90;;;;;;5072069;28;20914;-81
2024/02/02 11:32:07;;;;;;;11.67;4.23;;;10.70;99.90;;;;;;5071089;28;20501;-82
2024/02/02 11:34:43;;;;;;;8.03;4.37;;;10.50;99.90;;;;;;5072866;28;20485;-82
2024/02/02 11:37:22;;;;;;;13.13;5.03;;;10.40;99.90;;;;;;5073381;28;20453;-83
2024/02/02 11:39:59;;;;;;;18.83;6.30;;;10.50;99.90;;;;;;5082393;28;20470;-81
2024/02/02 11:42:27;;;;;;;13.70;5.67;;;10.50;99.90;;;;;;5084387;28;20475;-82
2024/02/02 11:44:56;;;;;;;11.30;5.20;;;11.10;99.90;;;;;;5074481;28;20468;-84
2024/02/02 11:47:26;;;;;;;10.27;4.20;;;11.40;99.90;;;;;;5079144;28;20446;-85
2024/02/02 11:50:01;;;;;;;12.17;5.53;;;11.50;99.90;;;;;;5066215;28;20575;-84
2024/02/02 11:52:32;;;;;;;13.90;5.60;;;11.30;99.90;;;;;;5074566;28;20483;-83
2024/02/02 11:55:10;;;;;;;14.20;5.07;;;11.30;99.90;;;;;;5074438;28;20445;-83
2024/02/02 11:57:44;;;;;;;12.10;5.03;;;11.60;99.90;;;;;;5072189;28;20445;-80
2024/02/02 12:00:25;;;;;;;12.03;4.10;;;11.70;99.90;;;;;;5077631;28;20460;-82
2024/02/02 12:03:10;;;;;;;10.43;4.90;;;12.20;99.90;;;;;;5069957;28;20505;-82
2024/02/02 12:05:49;;;;;;;9.27;4.57;;;12.70;99.90;;;;;;5081115;28;20937;-86
2024/02/02 12:08:30;;;;;;;16.07;5.30;;;12.60;99.90;;;;;;5073922;28;21061;-84
2024/02/02 12:10:58;;;;;;;14.47;5.00;;;12.60;99.90;;;;;;5071330;28;20831;-85
2024/02/02 12:13:29;;;;;;;13.57;4.03;;;12.70;99.90;;;;;;5079249;28;20478;-83
2024/02/02 12:15:57;;;;;;;12.70;4.97;;;13.10;99.90;;;;;;5066874;28;20469;-83
2024/02/02 12:18:25;;;;;;;10.13;3.30;;;13.50;99.90;;;;;;5067689;28;20470;-83
2024/02/02 12:20:52;;;;;;;18.73;4.50;;;14.50;99.90;;;;;;5065227;28;20465;-83
2024/02/02 12:23:22;;;;;;;12.90;4.63;;;14.80;99.90;;;;;;5067065;28;20491;-85
2024/02/02 12:25:49;;;;;;;6.57;4.03;;;14.90;99.90;;;;;;5074145;28;20576;-82
2024/02/02 12:28:16;;;;;;;7.87;3.87;;;14.20;99.90;;;;;;5067470;28;21007;-83
2024/02/02 12:30:43;;;;;;;12.63;4.70;;;13.60;99.90;;;;;;5069582;28;20460;-83
2024/02/02 12:33:10;;;;;;;14.20;3.50;;;14.50;99.90;;;;;;5071225;28;20439;-81
2024/02/02 12:35:40;;;;;;;9.27;3.47;;;15.00;99.90;;;;;;5067502;28;20448;-81
2024/02/02 12:38:07;;;;;;;10.87;4.10;;;15.50;99.90;;;;;;5073509;28;20445;-81
2024/02/02 12:40:35;;;;;;;12.53;4.93;;;16.20;99.60;;;;;;5076179;28;20450;-82
2024/02/02 12:43:03;;;;;;;11.40;4.80;;;16.00;98.00;;;;;;5063529;28;20475;-82
2024/02/02 12:45:31;;;;;;;6.53;3.07;;;15.20;97.90;;;;;;5068231;28;20460;-82
2024/02/02 12:48:00;;;;;;;9.17;4.80;;;14.30;99.40;;;;;;5071310;28;20454;-82
2024/02/02 12:50:29;;;;;;;8.80;3.33;;;14.40;99.90;;;;;;5070961;28;20544;-82
2024/02/02 12:52:58;;;;;;;14.50;4.10;;;14.20;99.90;;;;;;5069800;28;20454;-82
2024/02/02 12:55:25;;;;;;;11.20;3.30;;;13.60;99.90;;;;;;5077679;28;20461;-80
2024/02/02 12:57:53;;;;;;;14.60;5.67;;;13.20;99.90;;;;;;5078817;28;20452;-82
2024/02/02 13:00:21;;;;;;;13.60;3.97;;;12.60;99.90;;;;;;5087247;28;20457;-84
2024/02/02 13:02:49;;;;;;;10.37;4.30;;;12.50;99.90;;;;;;5083490;28;20472;-82